メインページ
METAR-TAF:

METAR-TAF

空港 :

サルガド・フィーリョ国際空港

ポルト・アレグレ, リオグランデ・ド・スル州, ブラジル

緯度: 30-00S, 経度: 051-11W, 海抜: 3m

現時点の気象観測

当レポートは14分前の14:00(UTC)に作成
の風 8kt
気温 27°C
湿度 58%
気圧 1009 hPa
視程10km以上
1,500メートル以下は雲なし、積乱雲なし

METAR: SBPA 201400Z 35008KT CAVOK 27/18 Q1009

時間: 11:14 (14:14 UTC)

予報

当レポートは4時間44分前の09:30(UTC)に作成
予報は20日の 12時(UTC)から 21日の 12時(UTC)まで有効
の風 6kt
視程10km以上
1,500メートル以下は雲なし、積乱雲なし
20日の 14時(UTC)から 20日の 16時(UTC)まで徐々に
西/南西の風 12kt
20日の 17時(UTC)から 20日の 19時(UTC)まで徐々に
視程10km以上
高度3500ftの雲はほとんどない
20日の 20時(UTC)から 20日の 22時(UTC)まで徐々に
西/北西の風 12kt
間 20から UTC一時的に
視程: 5000m
高度1200ftの千切れ雲あり
高度3000ftの雲はほとんどない, 積乱雲.
激しい雷雨, 雨
21日の 04時(UTC)から 21日の 06時(UTC)まで徐々に
高度2500ftの雲は散在している
21日の 08時(UTC)から 21日の 10時(UTC)まで徐々に

TAF: SBPA 200930Z 2012/2112 36006KT CAVOK TX29/2017Z TN06/2109Z BECMG 2014/2016 24012KT BECMG 2017/2019 9999 FEW035 BECMG 2020/2022 29012KT TEMPO 20 23/2104 5000 TSRA BKN012 FEW030CB BECMG 2104/2106 SCT025 BECMG 2108/2110 300 07KT RMK PCX

4,000以上の空港の気象観測と天気予報(METAR報とTAF報)

利用可能な観測所は地図上に黄色い丸と赤い丸で示す。

丸の上にカーソルを重ねると観測所名を参照できる。

次にクリックすると気象観測と天気予報を参照できる。

マップの切り替え:黒色「×」印の緑ボタンをクリックして拡大、「-」印の緑ボタンをクリックして縮小、緑色の三角印をクリックして隣りの地図に切り替え


METAR-TAF: